This is the latest recevied weather packets stored in our database for station/object VE6CWS-7. If no packets are shown the sender has not sent any weather packets the latest 10 day(s).
| Time | Temp. | Humidity | Pressure | Rain* | Wind** | Luminosity | Snow |
|---|---|---|---|---|---|---|---|
| 1777774545 | 17.22° C | 42% | 1011.4 hPa | 0 mm | - | - | - |
| 1777773705 | 17.22° C | 43% | 1011.5 hPa | 0 mm | - | - | - |
| 1777772744 | 18.33° C | 41% | 1011.5 hPa | 0 mm | - | - | - |
| 1777771842 | 19.44° C | 38% | 1011.8 hPa | 0 mm | - | - | - |
| 1777770942 | 19.44° C | 34% | 1011.9 hPa | 0 mm | - | - | - |
| 1777770101 | 18.89° C | 35% | 1012 hPa | 0 mm | - | - | - |
| 1777769142 | 18.33° C | 37% | 1012.2 hPa | 0 mm | - | - | - |
| 1777768237 | 18.33° C | 35% | 1012.4 hPa | 0 mm | - | - | - |
| 1777767336 | 19.44° C | 33% | 1012.5 hPa | 0 mm | - | - | - |
| 1777766495 | 18.89° C | 34% | 1012.6 hPa | 0 mm | - | - | - |
| 1777765549 | 18.33° C | 37% | 1012.8 hPa | 0 mm | - | - | - |
| 1777764638 | 19.44° C | 32% | 1012.8 hPa | 0 mm | - | - | - |
| 1777763735 | 20° C | 32% | 1013 hPa | 0 mm | - | - | - |
| 1777762893 | 19.44° C | 33% | 1013.3 hPa | 0 mm | - | - | - |
| 1777761953 | 18.33° C | 35% | 1013.6 hPa | 0 mm | - | - | - |
| 1777761052 | 19.44° C | 34% | 1013.6 hPa | 0 mm | - | - | - |
| 1777760150 | 18.89° C | 32% | 1013.9 hPa | 0 mm | - | - | - |
| 1777759306 | 18.89° C | 35% | 1014 hPa | 0 mm | - | - | - |
| 1777758353 | 18.33° C | 34% | 1014.4 hPa | 0 mm | - | - | - |
| 1777757454 | 18.33° C | 34% | 1014.5 hPa | 0 mm | - | - | - |
| 1777756546 | 17.78° C | 34% | 1014.8 hPa | 0 mm | - | - | - |
| 1777755703 | 17.78° C | 34% | 1015 hPa | 0 mm | - | - | - |
| 1777754738 | 17.22° C | 35% | 1015 hPa | 0 mm | - | - | - |
| 1777753838 | 17.22° C | 36% | 1015.3 hPa | 0 mm | - | - | - |
| 1777752943 | 17.22° C | 35% | 1015.3 hPa | 0 mm | - | - | - |
* Rain latest hour (hover to see other rain measurements)
** Current wind speed in m/s (hover to see current wind gust speed)